createdAt,value
2018-12-26T00:01:36.404Z,90.70
2018-12-26T00:04:41.511Z,90.50
2018-12-26T00:07:46.604Z,90.40
2018-12-26T00:10:51.707Z,90.00
2018-12-26T00:13:56.675Z,89.80
2018-12-26T00:17:01.631Z,89.70
2018-12-26T00:20:06.973Z,89.50
2018-12-26T00:23:11.944Z,89.30
2018-12-26T00:26:17.139Z,89.60
2018-12-26T00:29:22.106Z,89.60
2018-12-26T00:32:27.135Z,89.70
2018-12-26T00:35:32.099Z,89.90
2018-12-26T00:38:37.186Z,90.00
2018-12-26T00:41:42.141Z,89.80
2018-12-26T00:44:47.187Z,89.60
2018-12-26T00:47:52.215Z,89.80
2018-12-26T00:50:57.184Z,89.40
2018-12-26T00:54:02.237Z,89.50
2018-12-26T00:57:07.339Z,90.20
2018-12-26T01:00:12.458Z,89.60
2018-12-26T01:03:17.564Z,90.00
2018-12-26T01:06:22.599Z,90.20
2018-12-26T01:09:27.715Z,90.30
2018-12-26T01:12:32.814Z,90.20
2018-12-26T01:15:37.864Z,90.10
2018-12-26T01:18:42.823Z,90.00
2018-12-26T01:21:47.926Z,90.00
2018-12-26T01:24:52.975Z,90.00
2018-12-26T01:27:57.999Z,90.00
2018-12-26T01:31:02.962Z,89.80
2018-12-26T01:34:07.924Z,89.80
2018-12-26T01:37:12.955Z,89.90
2018-12-26T01:40:18.040Z,89.80
2018-12-26T01:43:23.087Z,90.00
2018-12-26T01:46:28.057Z,90.10
2018-12-26T01:49:32.994Z,90.10
2018-12-26T01:52:38.051Z,90.10
2018-12-26T01:55:43.127Z,90.20
2018-12-26T01:58:48.106Z,90.10
2018-12-26T02:01:53.139Z,89.80
2018-12-26T02:04:58.161Z,89.50
2018-12-26T02:08:03.566Z,89.30
2018-12-26T02:11:08.542Z,88.70
2018-12-26T02:14:13.562Z,88.30
2018-12-26T02:17:18.526Z,88.10
2018-12-26T02:20:24.348Z,88.00
2018-12-26T02:23:29.467Z,87.90
2018-12-26T02:26:36.565Z,87.70
2018-12-26T02:29:41.060Z,87.70
2018-12-26T02:32:46.225Z,87.70
2018-12-26T02:35:51.246Z,88.10
2018-12-26T02:38:56.218Z,88.70
2018-12-26T02:42:01.251Z,89.20
2018-12-26T02:45:06.833Z,89.50
2018-12-26T02:48:11.783Z,89.80
2018-12-26T02:51:16.832Z,90.00
2018-12-26T02:54:21.787Z,90.40
2018-12-26T02:57:26.756Z,90.10
2018-12-26T03:00:31.797Z,90.20
2018-12-26T03:03:36.746Z,90.10
2018-12-26T03:06:41.786Z,90.00
2018-12-26T03:09:46.798Z,89.70
2018-12-26T03:12:51.784Z,89.50
2018-12-26T03:15:56.873Z,89.70
2018-12-26T03:19:01.919Z,89.60
2018-12-26T03:22:07.030Z,89.30
2018-12-26T03:25:12.136Z,89.20
2018-12-26T03:28:17.088Z,89.30
2018-12-26T03:31:22.113Z,89.40
2018-12-26T03:34:27.135Z,89.50
2018-12-26T03:37:32.327Z,89.50
2018-12-26T03:40:37.375Z,89.60
2018-12-26T03:43:42.480Z,89.40
2018-12-26T03:46:47.581Z,89.00
2018-12-26T03:49:54.264Z,89.00
2018-12-26T03:52:59.770Z,89.50
2018-12-26T03:56:04.914Z,90.00
2018-12-26T03:59:09.939Z,90.20
2018-12-26T04:02:15.029Z,90.40
2018-12-26T04:05:20.153Z,90.40
2018-12-26T04:08:25.196Z,90.40
2018-12-26T04:11:30.394Z,90.60
2018-12-26T04:14:35.594Z,90.70
2018-12-26T04:17:40.535Z,90.80
2018-12-26T04:20:45.752Z,90.90
2018-12-26T04:23:50.775Z,90.90
2018-12-26T04:26:55.758Z,91.00
2018-12-26T04:30:00.923Z,91.00
2018-12-26T04:33:05.898Z,91.00
2018-12-26T04:36:10.846Z,91.10
2018-12-26T04:39:15.894Z,91.10
2018-12-26T04:42:20.939Z,91.10
2018-12-26T04:45:25.963Z,91.10
2018-12-26T04:48:30.999Z,91.20
2018-12-26T04:51:35.953Z,91.40
2018-12-26T04:54:40.923Z,91.60
2018-12-26T04:57:45.864Z,91.60
2018-12-26T05:00:50.816Z,91.60
2018-12-26T05:03:55.834Z,91.60
2018-12-26T05:07:00.807Z,91.60
2018-12-26T05:10:06.315Z,91.70
2018-12-26T05:13:11.412Z,91.70
2018-12-26T05:16:16.445Z,91.70
2018-12-26T05:19:21.471Z,91.80
2018-12-26T05:22:26.575Z,91.90
2018-12-26T05:25:31.615Z,92.00
2018-12-26T05:28:36.630Z,92.00
2018-12-26T05:31:41.688Z,92.00
2018-12-26T05:34:46.704Z,92.00
2018-12-26T05:37:51.650Z,92.00
2018-12-26T05:40:56.698Z,92.10
2018-12-26T05:44:01.660Z,92.10
2018-12-26T05:47:06.623Z,92.10
2018-12-26T05:50:11.577Z,92.10
2018-12-26T05:53:16.598Z,92.20
2018-12-26T05:56:21.646Z,92.20
2018-12-26T05:59:26.600Z,92.20
2018-12-26T06:02:31.547Z,92.20
2018-12-26T06:05:36.668Z,92.20
2018-12-26T06:08:41.620Z,92.20
2018-12-26T06:11:46.727Z,92.70
2018-12-26T06:14:51.779Z,92.50
2018-12-26T06:17:56.731Z,92.50
2018-12-26T06:21:01.702Z,92.60
2018-12-26T06:24:06.663Z,92.70
2018-12-26T06:27:11.707Z,92.70
2018-12-26T06:30:16.804Z,92.80
2018-12-26T06:33:21.766Z,92.80
2018-12-26T06:36:26.734Z,93.00
2018-12-26T06:39:31.690Z,92.90
2018-12-26T06:42:36.784Z,92.90
2018-12-26T06:45:41.734Z,92.90
2018-12-26T06:48:46.705Z,93.10
2018-12-26T06:51:51.732Z,93.10
2018-12-26T06:54:56.695Z,93.10
2018-12-26T06:58:01.723Z,93.20
2018-12-26T07:01:06.766Z,93.40
2018-12-26T07:04:11.723Z,93.30
2018-12-26T07:07:16.671Z,93.40
2018-12-26T07:10:21.708Z,93.40
2018-12-26T07:13:26.670Z,93.50
2018-12-26T07:16:31.650Z,93.40
2018-12-26T07:19:36.666Z,93.50
2018-12-26T07:22:41.706Z,93.50
2018-12-26T07:25:46.679Z,93.50
2018-12-26T07:28:51.618Z,93.40
2018-12-26T07:31:56.592Z,93.40
2018-12-26T07:35:01.558Z,93.40
2018-12-26T07:38:06.519Z,93.40
2018-12-26T07:41:11.560Z,93.30
2018-12-26T07:44:16.511Z,93.60
2018-12-26T07:47:21.483Z,93.20
2018-12-26T07:50:26.451Z,93.30
2018-12-26T07:53:31.491Z,93.30
2018-12-26T07:56:36.525Z,93.20
2018-12-26T07:59:41.562Z,93.20
2018-12-26T08:02:46.528Z,93.20
2018-12-26T08:05:51.486Z,93.30
2018-12-26T08:08:56.471Z,93.40
2018-12-26T08:12:01.451Z,93.60
2018-12-26T08:15:10.486Z,93.60
2018-12-26T08:18:13.263Z,93.60
2018-12-26T08:21:18.379Z,93.50
2018-12-26T08:24:23.410Z,93.30
2018-12-26T08:27:28.430Z,93.20
2018-12-26T08:30:33.485Z,93.20
2018-12-26T08:33:38.519Z,93.20
2018-12-26T08:36:43.633Z,93.30
2018-12-26T08:39:48.730Z,93.30
2018-12-26T08:42:53.755Z,93.40
2018-12-26T08:45:58.712Z,93.50
2018-12-26T08:49:03.735Z,93.60
2018-12-26T08:52:08.758Z,93.50
2018-12-26T08:55:13.723Z,93.50
2018-12-26T08:58:18.783Z,93.50
2018-12-26T09:01:23.738Z,93.50
2018-12-26T09:04:28.699Z,93.60
2018-12-26T09:07:33.655Z,93.50
2018-12-26T09:10:38.619Z,93.40
2018-12-26T09:13:43.714Z,93.20
2018-12-26T09:16:48.676Z,93.30
2018-12-26T09:19:53.639Z,93.20
2018-12-26T09:22:58.588Z,93.00
2018-12-26T09:26:04.793Z,92.70
2018-12-26T09:29:09.738Z,92.40
2018-12-26T09:32:14.918Z,92.50
2018-12-26T09:35:21.007Z,92.20
2018-12-26T09:38:26.095Z,92.10
2018-12-26T09:41:31.055Z,92.10
2018-12-26T09:44:36.039Z,92.00
2018-12-26T09:47:41.018Z,92.00
2018-12-26T09:50:45.963Z,91.90
2018-12-26T09:53:50.924Z,91.70
2018-12-26T09:56:55.876Z,91.60
2018-12-26T10:00:00.908Z,91.50
2018-12-26T10:03:05.957Z,91.30
2018-12-26T10:06:10.905Z,91.20
2018-12-26T10:09:15.935Z,90.90
2018-12-26T10:12:20.975Z,90.70
2018-12-26T10:15:26.077Z,90.40
2018-12-26T10:18:31.216Z,90.30
2018-12-26T10:21:36.151Z,90.20
2018-12-26T10:24:41.107Z,90.00
2018-12-26T10:27:46.078Z,89.10
2018-12-26T10:30:51.045Z,88.10
2018-12-26T10:33:56.007Z,87.90
2018-12-26T10:37:01.048Z,87.80
2018-12-26T10:40:06.350Z,88.00
2018-12-26T10:43:11.331Z,87.60
2018-12-26T10:46:16.354Z,87.30
2018-12-26T10:49:21.304Z,87.30
2018-12-26T10:52:26.318Z,86.80
2018-12-26T10:55:31.413Z,85.30
2018-12-26T10:58:36.446Z,85.00
2018-12-26T11:01:41.414Z,84.60
2018-12-26T11:04:48.577Z,84.40
2018-12-26T11:07:53.251Z,83.60
2018-12-26T11:10:58.195Z,83.00
2018-12-26T11:14:03.231Z,82.80
2018-12-26T11:17:08.672Z,82.90
2018-12-26T11:20:15.626Z,82.20
2018-12-26T11:23:20.693Z,81.30
2018-12-26T11:26:25.783Z,81.40
2018-12-26T11:29:30.760Z,81.60
2018-12-26T11:32:35.798Z,81.50
2018-12-26T11:35:40.838Z,81.10
2018-12-26T11:38:45.938Z,81.10
2018-12-26T11:41:51.075Z,81.00
2018-12-26T11:44:56.049Z,79.10
2018-12-26T11:48:01.036Z,78.50
2018-12-26T11:51:06.153Z,77.80
2018-12-26T11:54:11.095Z,77.40
2018-12-26T11:57:17.478Z,77.90
2018-12-26T12:00:22.639Z,77.60
2018-12-26T12:03:27.742Z,77.80
2018-12-26T12:06:32.862Z,78.00
2018-12-26T12:09:37.967Z,77.50
2018-12-26T12:12:43.051Z,78.50
2018-12-26T12:15:48.144Z,77.10
2018-12-26T12:18:53.243Z,76.50
2018-12-26T12:21:58.328Z,77.00
2018-12-26T12:25:03.358Z,76.50
2018-12-26T12:28:08.382Z,76.90
2018-12-26T12:31:13.417Z,76.80
2018-12-26T12:34:18.851Z,77.00
2018-12-26T12:37:23.962Z,77.30
2018-12-26T12:40:29.077Z,77.30
2018-12-26T12:43:34.126Z,77.50
2018-12-26T12:46:39.351Z,77.50
2018-12-26T12:49:44.464Z,77.60
2018-12-26T12:52:49.414Z,77.80
2018-12-26T12:55:56.130Z,78.50
2018-12-26T12:59:01.259Z,76.90
2018-12-26T13:02:06.386Z,77.10
2018-12-26T13:05:11.490Z,77.00
2018-12-26T13:08:16.486Z,77.60
2018-12-26T13:11:21.436Z,76.70
2018-12-26T13:14:26.399Z,77.10
2018-12-26T13:17:31.354Z,76.70
2018-12-26T13:20:36.367Z,76.30
2018-12-26T13:23:41.400Z,76.10
2018-12-26T13:26:46.441Z,75.30
2018-12-26T13:29:53.899Z,74.80
2018-12-26T13:32:58.111Z,73.80
2018-12-26T13:36:03.521Z,73.20
2018-12-26T13:39:08.639Z,72.70
2018-12-26T13:42:13.675Z,72.80
2018-12-26T13:45:19.471Z,72.30
2018-12-26T13:48:24.439Z,72.30
2018-12-26T13:51:29.470Z,72.50
2018-12-26T13:54:34.516Z,72.10
2018-12-26T13:57:39.470Z,71.90
2018-12-26T14:00:44.663Z,71.90
2018-12-26T14:03:49.690Z,71.10
2018-12-26T14:06:54.661Z,70.60
2018-12-26T14:09:59.680Z,70.10
2018-12-26T14:13:04.719Z,70.20
2018-12-26T14:16:09.742Z,70.20
2018-12-26T14:19:14.773Z,70.50
2018-12-26T14:22:19.736Z,70.50
2018-12-26T14:25:24.707Z,70.60
2018-12-26T14:28:29.647Z,70.90
2018-12-26T14:31:34.604Z,71.00
2018-12-26T14:34:39.546Z,71.10
2018-12-26T14:37:44.579Z,71.60
2018-12-26T14:40:49.518Z,71.20
2018-12-26T14:43:54.559Z,71.40
2018-12-26T14:46:59.501Z,71.50
2018-12-26T14:50:05.134Z,71.10
2018-12-26T14:53:10.075Z,71.20
2018-12-26T14:56:15.119Z,71.10
2018-12-26T14:59:20.122Z,70.90
2018-12-26T15:02:25.175Z,70.80
2018-12-26T15:05:30.187Z,70.70
2018-12-26T15:08:35.152Z,71.00
2018-12-26T15:11:40.166Z,71.50
2018-12-26T15:14:45.195Z,71.70
2018-12-26T15:17:50.228Z,71.90
2018-12-26T15:20:55.247Z,72.00
2018-12-26T15:24:00.345Z,72.00
2018-12-26T15:27:05.360Z,72.20
2018-12-26T15:30:10.487Z,72.70
2018-12-26T15:33:15.531Z,73.10
2018-12-26T15:36:20.489Z,73.50
2018-12-26T15:39:25.486Z,74.30
2018-12-26T15:42:30.432Z,74.90
2018-12-26T15:45:35.459Z,75.40
2018-12-26T15:48:40.547Z,75.80
2018-12-26T15:51:46.379Z,76.00
2018-12-26T15:54:52.632Z,76.50
2018-12-26T15:57:57.560Z,77.70
2018-12-26T16:01:02.739Z,77.10
2018-12-26T16:04:09.429Z,77.30
2018-12-26T16:07:14.517Z,77.80
2018-12-26T16:10:19.552Z,78.00
2018-12-26T16:13:24.571Z,78.20
2018-12-26T16:16:29.532Z,78.60
2018-12-26T16:19:34.559Z,78.70
2018-12-26T16:22:39.821Z,79.00
2018-12-26T16:25:44.888Z,79.10
2018-12-26T16:28:49.931Z,79.90
2018-12-26T16:31:55.031Z,79.20
2018-12-26T16:35:00.263Z,79.70
2018-12-26T16:38:05.383Z,81.00
2018-12-26T16:41:10.470Z,80.70
2018-12-26T16:44:15.504Z,81.00
2018-12-26T16:47:20.451Z,81.50
2018-12-26T16:50:27.103Z,81.80
2018-12-26T16:53:32.562Z,82.00
2018-12-26T16:56:37.647Z,82.10
2018-12-26T16:59:42.701Z,82.30
2018-12-26T17:02:47.674Z,82.30
2018-12-26T17:05:52.772Z,83.40
2018-12-26T17:08:57.720Z,83.10
2018-12-26T17:12:02.783Z,83.20
2018-12-26T17:15:07.896Z,83.20
2018-12-26T17:18:13.180Z,83.60
2018-12-26T17:21:18.203Z,84.30
2018-12-26T17:24:23.240Z,85.00
2018-12-26T17:27:28.210Z,85.20
2018-12-26T17:30:33.251Z,85.20
2018-12-26T17:33:38.280Z,85.90
2018-12-26T17:36:43.403Z,86.60
2018-12-26T17:39:48.444Z,87.30
2018-12-26T17:42:53.393Z,88.10
2018-12-26T17:45:58.361Z,88.90
2018-12-26T17:49:03.401Z,89.70
2018-12-26T17:52:08.358Z,90.00
2018-12-26T17:55:54.852Z,90.10
2018-12-26T17:59:17.182Z,90.40
2018-12-26T18:02:27.010Z,90.70
2018-12-26T18:05:31.968Z,90.60
2018-12-26T18:08:37.099Z,90.90
2018-12-26T18:11:42.283Z,91.00
2018-12-26T18:14:47.555Z,91.20
2018-12-26T18:17:52.660Z,91.30
2018-12-26T18:20:57.838Z,91.20
2018-12-26T18:24:02.996Z,91.60
2018-12-26T18:27:08.131Z,91.40
2018-12-26T18:30:13.391Z,91.40
2018-12-26T18:33:18.654Z,91.40
2018-12-26T18:36:23.948Z,91.40
2018-12-26T18:39:29.111Z,91.50
2018-12-26T18:42:34.432Z,91.50
2018-12-26T18:45:39.698Z,91.50
2018-12-26T18:48:44.811Z,91.70
2018-12-26T18:51:49.871Z,91.80
2018-12-26T18:54:55.012Z,91.80
2018-12-26T18:58:00.090Z,91.70
2018-12-26T19:01:05.427Z,91.50
2018-12-26T19:04:10.556Z,91.60
2018-12-26T19:07:15.687Z,91.60
2018-12-26T19:10:20.968Z,91.60
2018-12-26T19:13:26.059Z,91.70
2018-12-26T19:16:31.074Z,91.60
2018-12-26T19:19:36.420Z,91.60
2018-12-26T19:22:41.602Z,91.50
2018-12-26T19:25:46.830Z,91.70
2018-12-26T19:28:51.862Z,91.90
2018-12-26T19:31:56.895Z,92.00
2018-12-26T19:35:02.078Z,92.10
2018-12-26T19:38:07.288Z,92.10
2018-12-26T19:41:12.246Z,91.90
2018-12-26T19:44:17.304Z,92.40
2018-12-26T19:47:22.252Z,92.00
2018-12-26T19:50:27.283Z,92.20
2018-12-26T19:53:32.298Z,92.30
2018-12-26T19:56:37.258Z,92.20
2018-12-26T19:59:42.354Z,92.20
2018-12-26T20:02:47.347Z,92.20
2018-12-26T20:05:52.378Z,92.10
2018-12-26T20:08:57.331Z,92.10
2018-12-26T20:12:06.098Z,92.20
2018-12-26T20:15:11.231Z,92.40
2018-12-26T20:18:16.260Z,92.30
2018-12-26T20:21:21.215Z,92.20
2018-12-26T20:24:26.253Z,92.20
2018-12-26T20:27:31.302Z,92.30
2018-12-26T20:30:36.327Z,92.20
2018-12-26T20:33:41.363Z,92.10
2018-12-26T20:36:46.407Z,92.00
2018-12-26T20:39:51.379Z,92.00
2018-12-26T20:42:56.403Z,92.00
2018-12-26T20:46:01.515Z,92.00
2018-12-26T20:49:06.543Z,92.00
2018-12-26T20:52:11.575Z,92.00
2018-12-26T20:55:16.659Z,92.00
2018-12-26T20:58:21.696Z,91.90
2018-12-26T21:01:29.024Z,91.90
2018-12-26T21:04:34.072Z,92.00
2018-12-26T21:07:39.110Z,92.00
2018-12-26T21:10:44.138Z,92.00
2018-12-26T21:13:49.189Z,92.10
2018-12-26T21:16:55.171Z,92.10
2018-12-26T21:20:00.531Z,92.10
2018-12-26T21:23:05.895Z,92.10
2018-12-26T21:26:11.002Z,92.00
2018-12-26T21:29:16.125Z,92.00
2018-12-26T21:32:21.173Z,91.90
2018-12-26T21:35:26.203Z,91.80
2018-12-26T21:38:31.258Z,92.00
2018-12-26T21:41:36.215Z,92.10
2018-12-26T21:44:41.299Z,92.00
2018-12-26T21:47:46.364Z,92.00
2018-12-26T21:50:51.510Z,91.80
2018-12-26T21:53:56.537Z,91.70
2018-12-26T21:57:01.643Z,91.60
2018-12-26T22:00:07.815Z,91.70
2018-12-26T22:03:12.861Z,91.70
2018-12-26T22:06:17.919Z,91.70
2018-12-26T22:09:22.883Z,91.60
2018-12-26T22:12:28.194Z,91.70
2018-12-26T22:15:33.302Z,91.60
2018-12-26T22:18:38.333Z,91.70
2018-12-26T22:21:43.304Z,91.60
2018-12-26T22:24:48.272Z,91.60
2018-12-26T22:27:53.233Z,91.60
2018-12-26T22:30:58.263Z,91.60
2018-12-26T22:34:03.407Z,91.60
2018-12-26T22:37:08.442Z,91.50
2018-12-26T22:40:13.404Z,91.70
2018-12-26T22:43:18.376Z,91.30
2018-12-26T22:46:23.405Z,91.40
2018-12-26T22:49:28.383Z,91.50
2018-12-26T22:52:33.392Z,91.40
2018-12-26T22:55:38.358Z,91.30
2018-12-26T22:58:43.337Z,91.40
2018-12-26T23:01:48.391Z,91.40
2018-12-26T23:04:53.359Z,91.40
2018-12-26T23:07:58.387Z,91.70
2018-12-26T23:11:03.431Z,91.20
2018-12-26T23:14:08.392Z,91.20
2018-12-26T23:17:13.522Z,91.20
2018-12-26T23:20:18.551Z,91.20
2018-12-26T23:23:23.537Z,91.50
2018-12-26T23:26:28.571Z,91.10
2018-12-26T23:29:33.595Z,91.00
2018-12-26T23:32:38.615Z,90.80
2018-12-26T23:35:43.656Z,90.80
2018-12-26T23:38:48.598Z,90.80
2018-12-26T23:41:53.551Z,90.80
2018-12-26T23:44:58.515Z,90.70
2018-12-26T23:48:03.616Z,90.60
2018-12-26T23:51:08.570Z,90.40
2018-12-26T23:54:13.558Z,90.40
2018-12-26T23:57:18.512Z,90.20
